Time;durP1;ratioP1;P1;durP2;ratioP2;P2;SDS_P1;SDS_P2;PMS_P1;PMS_P2;Temp;Humidity;BMP_temperature;BMP_pressure;BME280_temperature;BME280_humidity;BME280_pressure;Samples;Min_cycle;Max_cycle;Signal;HPM_P1;HPM_P2
2022/10/21 10:45:32;;;;;;;5.43;3.27;;;;;;;17.50;100.00;97818.13;5138787;27;20699;-64
2022/10/21 10:48:02;;;;;;;4.77;2.43;;;;;;;17.44;100.00;97812.59;5092773;28;20222;-65
2022/10/21 10:50:42;;;;;;;5.90;2.43;;;;;;;17.32;100.00;97830.66;5092978;28;20363;-64
2022/10/21 10:53:29;;;;;;;3.60;2.20;;;;;;;17.24;100.00;97817.22;5083819;28;20291;-64
2022/10/21 10:56:04;;;;;;;4.63;2.60;;;;;;;17.19;100.00;97819.53;5088755;28;20222;-64
2022/10/21 10:58:35;;;;;;;4.90;2.17;;;;;;;17.16;100.00;97811.84;5092210;28;20303;-64
2022/10/21 11:01:08;;;;;;;5.27;2.20;;;;;;;17.13;100.00;97812.13;5091879;28;20244;-65
2022/10/21 11:03:41;;;;;;;3.90;2.17;;;;;;;17.13;100.00;97814.81;5092617;28;20222;-66
2022/10/21 11:06:14;;;;;;;4.17;2.43;;;;;;;17.18;100.00;97809.84;5093545;28;20229;-66
2022/10/21 11:08:45;;;;;;;4.23;2.40;;;;;;;17.24;100.00;97801.22;5093583;28;20275;-66
2022/10/21 11:11:17;;;;;;;4.23;2.50;;;;;;;17.28;100.00;97815.94;5093492;28;20234;-67
2022/10/21 11:13:44;;;;;;;4.07;2.00;;;;;;;17.35;100.00;97808.13;5093399;28;20261;-67
2022/10/21 11:16:30;;;;;;;2.97;1.80;;;;;;;17.34;100.00;97818.00;5093587;28;20231;-68
2022/10/21 11:19:03;;;;;;;3.43;1.90;;;;;;;17.36;100.00;97817.81;5091664;28;20299;-68
2022/10/21 11:21:43;;;;;;;5.30;2.00;;;;;;;17.40;100.00;97821.91;5093246;28;20223;-68
2022/10/21 11:24:36;;;;;;;4.23;2.23;;;;;;;17.54;100.00;97824.84;5084078;28;20588;-67
2022/10/21 11:27:07;;;;;;;3.50;1.80;;;;;;;17.68;100.00;97824.25;5093291;28;20585;-67
2022/10/21 11:29:46;;;;;;;3.13;1.83;;;;;;;17.77;100.00;97826.00;5093195;28;20230;-67
2022/10/21 11:32:27;;;;;;;3.43;2.03;;;;;;;17.86;100.00;97822.38;5093337;28;20283;-68
2022/10/21 11:35:04;;;;;;;2.20;1.70;;;;;;;17.98;100.00;97823.78;5092921;28;20278;-68
2022/10/21 11:37:46;;;;;;;2.43;1.80;;;;;;;18.10;100.00;97810.97;5092922;28;20223;-68
2022/10/21 11:40:19;;;;;;;3.10;1.63;;;;;;;18.16;100.00;97810.34;5092943;28;20557;-68
2022/10/21 11:42:49;;;;;;;2.80;1.60;;;;;;;18.16;100.00;97821.84;5092893;28;20230;-68
2022/10/21 11:45:36;;;;;;;3.23;1.53;;;;;;;18.20;100.00;97814.34;5091557;28;20245;-68
2022/10/21 11:48:16;;;;;;;4.00;2.00;;;;;;;18.25;100.00;97815.56;5092804;28;20256;-68
2022/10/21 11:50:54;;;;;;;3.27;1.53;;;;;;;18.23;100.00;97814.88;5092830;28;20287;-68
2022/10/21 11:53:50;;;;;;;2.90;1.80;;;;;;;18.29;100.00;97803.53;5092605;28;20279;-70
2022/10/21 11:56:26;;;;;;;3.27;1.47;;;;;;;18.32;100.00;97810.41;5082117;28;20219;-68
2022/10/21 11:59:05;;;;;;;2.87;1.67;;;;;;;18.34;100.00;97809.25;5077867;28;20689;-67
2022/10/21 12:01:44;;;;;;;1.90;1.37;;;;;;;18.40;100.00;97813.16;5076979;28;20660;-68
2022/10/21 12:04:27;;;;;;;1.73;1.27;;;;;;;18.40;100.00;97805.94;5077797;28;20215;-73
2022/10/21 12:07:09;;;;;;;3.93;1.30;;;;;;;18.40;100.00;97803.25;5079027;28;20298;-67
2022/10/21 12:09:42;;;;;;;3.17;1.37;;;;;;;18.34;100.00;97798.56;5077133;28;20250;-68
2022/10/21 12:12:11;;;;;;;2.93;1.23;;;;;;;18.26;100.00;97805.69;5078877;28;20586;-68
2022/10/21 12:14:43;;;;;;;2.30;1.27;;;;;;;18.16;100.00;97789.75;5078716;28;20296;-68
2022/10/21 12:17:14;;;;;;;2.03;1.17;;;;;;;18.04;100.00;97796.41;5078687;28;20268;-69
2022/10/21 12:19:50;;;;;;;1.97;0.97;;;;;;;17.94;100.00;97801.03;5078728;28;20215;-69
2022/10/21 12:22:17;;;;;;;1.83;1.00;;;;;;;17.82;100.00;97796.97;5078653;28;20281;-69
2022/10/21 12:24:50;;;;;;;1.30;1.00;;;;;;;17.74;100.00;97810.28;5078549;28;20424;-69
2022/10/21 12:27:25;;;;;;;1.92;1.00;;;;;;;17.65;100.00;97800.53;5078000;28;20438;-68
2022/10/21 12:30:12;;;;;;;3.47;1.43;;;;;;;17.63;100.00;97813.19;5078574;28;20215;-70
2022/10/21 12:32:46;;;;;;;4.13;1.70;;;;;;;17.63;100.00;97807.84;5078641;28;20585;-70
2022/10/21 12:35:16;;;;;;;2.87;2.10;;;;;;;17.68;100.00;97805.56;5076574;28;20296;-71
2022/10/21 12:38:05;;;;;;;2.23;1.20;;;;;;;17.66;100.00;97802.22;5078415;28;20377;-70
2022/10/21 12:40:39;;;;;;;1.95;1.17;;;;;;;17.71;100.00;97802.56;5069481;28;20442;-70
2022/10/21 12:43:16;;;;;;;5.43;1.77;;;;;;;17.77;100.00;97798.41;5078161;28;20215;-71
2022/10/21 12:45:43;;;;;;;2.03;1.20;;;;;;;17.74;100.00;97810.28;5078372;28;20211;-71
2022/10/21 12:48:31;;;;;;;2.47;1.20;;;;;;;17.72;100.00;97804.25;5078210;28;20219;-70
2022/10/21 12:51:02;;;;;;;4.37;1.50;;;;;;;17.67;100.00;97803.88;5078100;28;20250;-71
2022/10/21 12:53:37;;;;;;;1.60;0.97;;;;;;;17.62;100.00;97795.50;5078156;28;20546;-71
2022/10/21 12:56:05;;;;;;;1.70;0.97;;;;;;;17.55;100.00;97804.31;5078047;28;20235;-71
2022/10/21 12:58:36;;;;;;;1.63;0.90;;;;;;;17.48;100.00;97809.44;5077800;28;20222;-70
2022/10/21 13:01:04;;;;;;;4.53;1.07;;;;;;;17.40;100.00;97806.72;5076203;28;20218;-70
2022/10/21 13:03:55;;;;;;;2.27;1.00;;;;;;;17.39;100.00;97804.19;5078114;28;20220;-70
2022/10/21 13:06:52;;;;;;;1.00;0.83;;;;;;;17.35;100.00;97803.63;5077503;28;20256;-70
2022/10/21 13:09:41;;;;;;;1.90;1.03;;;;;;;17.35;100.00;97803.63;5077612;28;20692;-70
2022/10/21 13:12:29;;;;;;;1.93;1.13;;;;;;;17.35;100.00;97806.31;5074942;28;20262;-70
2022/10/21 13:14:57;;;;;;;4.73;1.40;;;;;;;17.35;100.00;97800.97;5077598;28;20292;-70
2022/10/21 13:17:33;;;;;;;2.07;1.20;;;;;;;17.42;100.00;97786.00;5077667;28;20314;-70
2022/10/21 13:20:38;;;;;;;1.23;1.00;;;;;;;17.53;100.00;97785.75;5077552;28;20558;-70
2022/10/21 13:23:32;;;;;;;1.50;0.90;;;;;;;17.62;100.00;97792.81;5077400;28;20219;-70
2022/10/21 13:26:29;;;;;;;3.13;1.70;;;;;;;17.64;100.00;97782.84;5077398;28;20316;-70
2022/10/21 13:28:59;;;;;;;1.57;0.80;;;;;;;17.65;100.00;97784.50;5035179;28;20230;-69
2022/10/21 13:31:26;;;;;;;2.30;1.13;;;;;;;17.67;100.00;97781.69;5068499;28;20251;-69
2022/10/21 13:33:55;;;;;;;2.20;1.00;;;;;;;17.67;100.00;97771.81;5077187;28;20226;-70
2022/10/21 13:36:33;;;;;;;1.73;1.40;;;;;;;17.63;100.00;97765.09;5077293;28;20318;-70
2022/10/21 13:39:08;;;;;;;2.73;1.30;;;;;;;17.62;100.00;97771.44;5077229;28;20221;-69
2022/10/21 13:41:35;;;;;;;1.17;0.97;;;;;;;17.62;100.00;97768.75;5077244;28;20268;-70
2022/10/21 13:44:04;;;;;;;1.70;1.00;;;;;;;17.58;100.00;97761.22;5077145;28;20491;-69
2022/10/21 13:46:34;;;;;;;1.63;0.90;;;;;;;17.54;100.00;97760.72;5077046;28;20223;-70
2022/10/21 13:49:01;;;;;;;2.90;1.03;;;;;;;17.46;100.00;97774.03;5077152;28;20230;-70
2022/10/21 13:51:30;;;;;;;3.73;1.10;;;;;;;17.40;100.00;97780.00;5076962;28;20446;-70
2022/10/21 13:53:58;;;;;;;1.80;0.93;;;;;;;17.36;100.00;97775.91;5075143;28;20524;-69
2022/10/21 13:56:30;;;;;;;1.47;0.90;;;;;;;17.35;100.00;97766.22;5076811;28;20255;-70
2022/10/21 13:58:58;;;;;;;2.37;1.07;;;;;;;17.35;100.00;97776.91;5076852;28;20262;-70
2022/10/21 14:01:27;;;;;;;1.70;0.87;;;;;;;17.27;100.00;97774.19;5077078;28;20260;-70
2022/10/21 14:03:55;;;;;;;1.47;0.90;;;;;;;17.22;100.00;97771.16;5076705;28;20273;-70
2022/10/21 14:06:30;;;;;;;1.50;0.80;;;;;;;17.21;100.00;97771.31;5076825;28;20255;-69
2022/10/21 14:08:59;;;;;;;2.07;1.10;;;;;;;17.12;100.00;97775.75;5076839;28;20325;-69
2022/10/21 14:11:30;;;;;;;7.43;5.73;;;;;;;17.12;100.00;97765.06;5076790;28;20308;-69
2022/10/21 14:13:59;;;;;;;2.20;1.40;;;;;;;17.04;100.00;97762.34;5076728;28;20255;-69
2022/10/21 14:16:32;;;;;;;0.90;0.80;;;;;;;17.05;100.00;97769.34;5076475;28;20292;-69
2022/10/21 14:18:59;;;;;;;2.30;1.03;;;;;;;17.05;100.00;97769.34;5074787;28;20574;-69
2022/10/21 14:21:27;;;;;;;3.23;1.40;;;;;;;17.03;100.00;97765.16;5076634;28;20260;-69
2022/10/21 14:23:54;;;;;;;3.17;1.67;;;;;;;16.99;100.00;97769.97;5076527;28;20294;-69
2022/10/21 14:26:21;;;;;;;1.97;1.13;;;;;;;16.99;100.00;97758.44;5076419;28;20261;-69
2022/10/21 14:28:50;;;;;;;2.77;2.20;;;;;;;16.94;100.00;97755.41;5076286;28;20292;-69
2022/10/21 14:31:18;;;;;;;2.27;1.00;;;;;;;16.91;100.00;97761.03;5076345;28;20218;-69
2022/10/21 14:33:48;;;;;;;4.90;1.00;;;;;;;16.92;100.00;97763.56;5076458;28;20222;-70
2022/10/21 14:36:19;;;;;;;1.17;1.00;;;;;;;16.93;100.00;97765.25;5076361;28;20235;-70
2022/10/21 14:38:53;;;;;;;2.40;1.00;;;;;;;16.90;100.00;97770.06;5076218;28;20225;-70
2022/10/21 14:41:25;;;;;;;1.50;0.87;;;;;;;16.89;100.00;97773.72;5076395;28;20230;-70
2022/10/21 14:43:54;;;;;;;2.50;0.90;;;;;;;16.89;100.00;97763.84;5074529;28;20307;-70
2022/10/21 14:46:21;;;;;;;1.97;0.83;;;;;;;16.84;100.00;97771.50;5076347;28;20217;-70
2022/10/21 14:48:53;;;;;;;0.73;0.70;;;;;;;16.80;100.00;97759.47;5076339;28;20223;-69
2022/10/21 14:51:22;;;;;;;0.80;0.80;;;;;;;16.74;100.00;97759.22;5076311;28;20304;-69
2022/10/21 14:53:53;;;;;;;2.77;1.00;;;;;;;16.72;100.00;97755.88;5076410;28;20219;-69
2022/10/21 14:56:22;;;;;;;1.33;1.00;;;;;;;16.75;100.00;97766.22;5076243;28;20265;-69
2022/10/21 14:58:57;;;;;;;2.63;1.10;;;;;;;16.65;100.00;97776.97;5076271;28;20304;-70
2022/10/21 15:01:24;;;;;;;1.97;0.87;;;;;;;16.61;100.00;97770.28;5076419;28;20265;-69
2022/10/21 15:03:52;;;;;;;1.53;0.90;;;;;;;16.58;100.00;97765.25;5076165;28;20217;-70
2022/10/21 15:06:22;;;;;;;1.10;1.00;;;;;;;16.53;100.00;97759.50;5076175;28;20281;-70
2022/10/21 15:09:22;;;;;;;1.90;1.13;;;;;;;16.47;100.00;97776.13;5076174;28;20211;-69
2022/10/21 15:11:48;;;;;;;1.07;0.90;;;;;;;16.42;100.00;97769.56;5067047;28;20516;-69
2022/10/21 15:14:27;;;;;;;1.00;0.90;;;;;;;16.29;100.00;97774.41;5076093;28;20218;-69
2022/10/21 15:16:56;;;;;;;1.53;0.97;;;;;;;16.32;100.00;97761.63;5076256;28;20593;-69
2022/10/21 15:19:26;;;;;;;2.20;1.03;;;;;;;16.29;100.00;97764.59;5075948;28;20257;-69
2022/10/21 15:21:57;;;;;;;0.97;0.80;;;;;;;16.24;100.00;97772.19;5076011;28;20248;-69
2022/10/21 15:24:33;;;;;;;1.23;0.87;;;;;;;16.23;100.00;97764.34;5075903;28;20273;-69
2022/10/21 15:27:01;;;;;;;2.67;1.10;;;;;;;16.13;100.00;97762.72;5075982;28;20223;-69
2022/10/21 15:29:37;;;;;;;2.90;0.93;;;;;;;16.09;100.00;97765.69;5075975;28;20259;-69
2022/10/21 15:32:05;;;;;;;1.43;1.10;;;;;;;16.10;100.00;97748.69;5079226;28;20620;-70
2022/10/21 15:34:33;;;;;;;2.20;1.20;;;;;;;16.13;100.00;97753.72;5080314;28;20472;-70
2022/10/21 15:36:59;;;;;;;1.37;0.73;;;;;;;16.12;100.00;97745.88;5077890;28;20245;-69
2022/10/21 15:39:26;;;;;;;2.30;0.77;;;;;;;16.09;100.00;97746.19;5079545;28;20249;-70
2022/10/21 15:41:55;;;;;;;1.90;0.80;;;;;;;16.10;100.00;97751.34;5079651;28;20250;-70
2022/10/21 15:44:24;;;;;;;1.20;0.93;;;;;;;16.10;100.00;97754.00;5079479;28;20269;-69
2022/10/21 15:46:57;;;;;;;1.23;0.87;;;;;;;16.15;100.00;97757.06;5079411;28;20215;-70
2022/10/21 15:49:26;;;;;;;1.50;0.83;;;;;;;16.15;100.00;97751.75;5079367;28;20244;-70
2022/10/21 15:51:53;;;;;;;1.60;0.90;;;;;;;16.13;100.00;97747.56;5079402;28;20219;-69
2022/10/21 15:54:20;;;;;;;1.23;0.87;;;;;;;16.06;100.00;97740.31;5079221;28;20283;-70
2022/10/21 15:56:50;;;;;;;1.00;0.90;;;;;;;16.00;100.00;97735.59;5079004;28;20288;-69
2022/10/21 15:59:19;;;;;;;5.30;0.90;;;;;;;16.01;100.00;97734.59;5079191;28;20218;-69
2022/10/21 16:01:46;;;;;;;1.03;0.90;;;;;;;15.98;100.00;97734.88;5077747;28;20584;-69
2022/10/21 16:04:14;;;;;;;1.60;0.90;;;;;;;15.91;100.00;97731.13;5078305;28;20442;-73
2022/10/21 16:06:44;;;;;;;1.57;0.70;;;;;;;15.90;100.00;97729.47;5079136;28;20250;-73
2022/10/21 16:09:12;;;;;;;1.37;0.90;;;;;;;15.79;100.00;97733.16;5079130;28;20494;-73
2022/10/21 16:11:39;;;;;;;1.43;1.00;;;;;;;15.71;100.00;97746.38;5079128;28;20222;-73
2022/10/21 16:14:08;;;;;;;1.43;0.87;;;;;;;15.69;100.00;97743.03;5079004;28;20227;-73
2022/10/21 16:16:44;;;;;;;1.27;1.10;;;;;;;15.69;100.00;97747.50;5078928;28;20261;-73
2022/10/21 16:19:11;;;;;;;1.90;0.90;;;;;;;15.64;100.00;97755.13;5078761;28;20258;-73
2022/10/21 16:21:40;;;;;;;1.90;1.00;;;;;;;15.62;100.00;97749.06;5078852;28;20323;-73
2022/10/21 16:24:07;;;;;;;2.07;1.00;;;;;;;15.60;100.00;97753.72;5078788;28;20219;-73
2022/10/21 16:26:37;;;;;;;1.00;0.80;;;;;;;15.54;100.00;97749.81;5078818;28;20215;-73
2022/10/21 16:29:04;;;;;;;2.80;0.80;;;;;;;15.61;100.00;97750.06;5077341;28;20276;-73
2022/10/21 16:31:31;;;;;;;1.10;0.80;;;;;;;15.62;100.00;97760.56;5078740;28;20291;-73
2022/10/21 16:33:57;;;;;;;1.17;0.80;;;;;;;15.54;100.00;97759.63;5078600;28;20222;-73
2022/10/21 16:36:28;;;;;;;2.10;0.83;;;;;;;15.51;100.00;97765.25;5078451;28;20725;-73
2022/10/21 16:38:56;;;;;;;1.87;0.80;;;;;;;15.47;100.00;97763.84;5078501;28;20514;-73
2022/10/21 16:41:27;;;;;;;1.30;1.00;;;;;;;15.40;100.00;97758.25;5078310;28;20311;-73
2022/10/21 16:43:54;;;;;;;0.90;0.80;;;;;;;15.39;100.00;97759.25;5078488;28;20241;-73
2022/10/21 16:46:25;;;;;;;1.10;0.90;;;;;;;15.36;100.00;97761.38;5078518;28;20217;-73
2022/10/21 16:48:52;;;;;;;0.80;0.80;;;;;;;15.31;100.00;97768.91;5078491;28;20323;-72
2022/10/21 16:51:21;;;;;;;1.93;0.90;;;;;;;15.34;100.00;97764.16;5078412;28;20266;-73
2022/10/21 16:53:48;;;;;;;1.33;0.80;;;;;;;15.41;100.00;97759.09;5076601;28;20639;-73
2022/10/21 16:56:16;;;;;;;2.20;0.97;;;;;;;15.44;100.00;97764.13;5076990;28;20238;-72
2022/10/21 16:58:43;;;;;;;0.90;0.80;;;;;;;15.47;100.00;97759.34;5077674;28;20270;-69
2022/10/21 17:01:13;;;;;;;1.83;0.90;;;;;;;15.53;100.00;97763.28;5077922;28;20217;-72
2022/10/21 17:03:40;;;;;;;1.07;0.73;;;;;;;15.44;100.00;97775.63;5078152;28;20327;-73
2022/10/21 17:06:06;;;;;;;1.93;1.17;;;;;;;15.42;100.00;97768.78;5077892;28;20218;-74
2022/10/21 17:08:33;;;;;;;5.17;0.80;;;;;;;15.36;100.00;97777.34;5077961;28;20643;-73
2022/10/21 17:11:00;;;;;;;0.70;0.70;;;;;;;15.36;100.00;97777.34;5077837;28;20290;-73
2022/10/21 17:13:28;;;;;;;1.10;0.90;;;;;;;15.37;100.00;97761.22;5077829;28;20222;-73
2022/10/21 17:15:54;;;;;;;1.27;1.00;;;;;;;15.34;100.00;97768.66;5077818;28;20578;-73
2022/10/21 17:18:21;;;;;;;1.50;0.97;;;;;;;15.30;100.00;97772.56;5073132;28;20572;-71
2022/10/21 17:20:49;;;;;;;2.73;1.67;;;;;;;15.31;100.00;97769.75;5076375;28;20240;-73
2022/10/21 17:23:16;;;;;;;2.43;2.10;;;;;;;15.43;100.00;97767.78;5077177;28;20443;-74
2022/10/21 17:25:42;;;;;;;1.30;1.20;;;;;;;15.40;100.00;97763.59;5077584;28;20217;-74
2022/10/21 17:28:10;;;;;;;1.17;1.00;;;;;;;15.45;100.00;97760.50;5077542;28;20248;-74
2022/10/21 17:30:38;;;;;;;1.40;0.80;;;;;;;15.43;100.00;97757.13;5077412;28;20227;-75
2022/10/21 17:33:05;;;;;;;1.50;0.90;;;;;;;15.40;100.00;97763.59;5077468;28;20573;-74
2022/10/21 17:35:31;;;;;;;1.10;0.90;;;;;;;15.36;100.00;97762.22;5077371;28;20236;-74
2022/10/21 17:37:58;;;;;;;1.57;0.90;;;;;;;15.35;100.00;97770.34;5077287;28;20259;-75
2022/10/21 17:40:26;;;;;;;2.10;0.90;;;;;;;15.27;100.00;97773.69;5077306;28;20217;-74
2022/10/21 17:42:53;;;;;;;1.00;0.80;;;;;;;15.27;100.00;97773.69;5077375;28;20222;-75
2022/10/21 17:45:21;;;;;;;2.87;1.33;;;;;;;15.25;100.00;97775.66;5075631;28;20304;-75
2022/10/21 17:47:51;;;;;;;1.07;0.80;;;;;;;15.25;100.00;97772.13;5077208;28;20274;-74
2022/10/21 17:50:22;;;;;;;0.83;0.70;;;;;;;15.31;100.00;97763.56;5077207;28;20217;-75
2022/10/21 17:52:49;;;;;;;1.07;0.97;;;;;;;15.28;100.00;97758.56;5076759;28;20371;-74
2022/10/21 17:55:16;;;;;;;1.17;0.80;;;;;;;15.28;100.00;97766.53;5077035;28;20221;-74
2022/10/21 17:57:43;;;;;;;1.30;0.90;;;;;;;15.30;100.00;97770.75;5077027;28;20259;-75
2022/10/21 18:00:11;;;;;;;1.00;0.90;;;;;;;15.32;100.00;97765.25;5077296;28;20615;-75
2022/10/21 18:02:38;;;;;;;1.63;0.97;;;;;;;15.34;100.00;97764.16;5077062;28;20497;-75
2022/10/21 18:05:09;;;;;;;3.80;0.87;;;;;;;15.37;100.00;97757.72;5076876;28;20226;-75
2022/10/21 18:07:36;;;;;;;1.57;0.87;;;;;;;15.42;100.00;97755.47;5076843;28;20217;-75
2022/10/21 18:10:04;;;;;;;2.10;1.20;;;;;;;15.45;100.00;97757.84;5073896;28;20468;-72
2022/10/21 18:12:31;;;;;;;1.07;0.80;;;;;;;15.41;100.00;97759.09;5073911;28;20284;-72
2022/10/21 18:14:58;;;;;;;0.80;0.80;;;;;;;15.37;100.00;97757.72;5075922;28;20222;-73
2022/10/21 18:17:26;;;;;;;1.13;0.87;;;;;;;15.31;100.00;97747.59;5075852;28;20325;-72
2022/10/21 18:19:53;;;;;;;3.83;1.10;;;;;;;15.16;100.00;97743.72;5073993;28;20217;-72
2022/10/21 18:22:23;;;;;;;2.10;0.93;;;;;;;15.04;100.00;97739.56;5072251;28;20221;-73
2022/10/21 18:24:51;;;;;;;1.40;0.90;;;;;;;15.08;100.00;97735.59;5075781;28;20315;-72
2022/10/21 18:27:19;;;;;;;2.80;1.10;;;;;;;15.00;100.00;97740.81;5075749;28;20470;-71
2022/10/21 18:29:47;;;;;;;0.80;0.67;;;;;;;14.97;100.00;97738.44;5076475;28;20506;-72
2022/10/21 18:32:14;;;;;;;2.43;1.10;;;;;;;14.86;100.00;97735.94;5076814;28;20267;-71
2022/10/21 18:34:42;;;;;;;1.37;1.00;;;;;;;14.93;100.00;97727.25;5076708;28;20217;-71
2022/10/21 18:37:10;;;;;;;1.17;0.97;;;;;;;14.82;100.00;97738.03;5074737;28;20246;-71
2022/10/21 18:39:40;;;;;;;1.00;0.90;;;;;;;14.80;100.00;97736.50;5076463;28;20217;-71
2022/10/21 18:42:08;;;;;;;1.33;1.10;;;;;;;14.84;100.00;97735.25;5073896;28;20245;-71
2022/10/21 18:44:36;;;;;;;1.27;0.90;;;;;;;14.88;100.00;97744.59;5075975;28;20256;-67
2022/10/21 18:47:03;;;;;;;1.60;1.30;;;;;;;14.81;100.00;97732.84;5076374;28;20217;-69
2022/10/21 18:49:31;;;;;;;1.37;1.20;;;;;;;14.80;100.00;97744.47;5076320;28;20645;-67
2022/10/21 18:51:59;;;;;;;1.70;1.40;;;;;;;14.86;100.00;97741.25;5076376;28;20233;-67
2022/10/21 18:54:27;;;;;;;1.53;1.20;;;;;;;14.87;100.00;97743.78;5076395;28;20227;-69
2022/10/21 18:56:57;;;;;;;1.80;1.10;;;;;;;14.86;100.00;97736.75;5076167;28;20236;-65
2022/10/21 18:59:24;;;;;;;1.80;1.47;;;;;;;14.87;100.00;97737.59;5076319;28;20224;-68
2022/10/21 19:01:53;;;;;;;2.33;1.07;;;;;;;14.85;100.00;97735.09;5075245;28;20218;-69
2022/10/21 19:04:21;;;;;;;1.20;1.10;;;;;;;14.82;100.00;97729.22;5075885;28;20660;-70
2022/10/21 19:06:49;;;;;;;1.40;1.10;;;;;;;14.80;100.00;97731.19;5079165;28;20213;-68
2022/10/21 19:09:19;;;;;;;1.80;1.10;;;;;;;14.79;100.00;97740.97;5080306;28;20225;-68
2022/10/21 19:11:48;;;;;;;1.30;1.20;;;;;;;14.79;100.00;97740.16;5080241;28;20218;-69
2022/10/21 19:14:19;;;;;;;3.00;1.67;;;;;;;14.77;100.00;97747.41;5080093;28;20219;-69
2022/10/21 19:16:48;;;;;;;4.13;2.53;;;;;;;14.69;100.00;97756.13;5079985;28;20551;-69
2022/10/21 19:19:17;;;;;;;3.07;1.23;;;;;;;14.70;100.00;97751.63;5080019;28;20225;-69
2022/10/21 19:21:45;;;;;;;2.00;1.40;;;;;;;14.71;100.00;97748.81;5079888;28;20552;-68
2022/10/21 19:24:13;;;;;;;3.67;2.10;;;;;;;14.78;100.00;97749.94;5079823;28;20224;-69
2022/10/21 19:26:42;;;;;;;2.90;1.93;;;;;;;14.80;100.00;97747.13;5079842;28;20239;-69
2022/10/21 19:29:13;;;;;;;2.37;1.73;;;;;;;14.82;100.00;97745.16;5078049;28;20281;-69
2022/10/21 19:31:43;;;;;;;1.60;1.43;;;;;;;14.80;100.00;97734.66;5079606;28;20217;-68
2022/10/21 19:34:12;;;;;;;1.60;1.37;;;;;;;14.82;100.00;97731.88;5079742;28;20515;-68
2022/10/21 19:36:40;;;;;;;1.73;1.30;;;;;;;14.87;100.00;97745.59;5078585;28;20236;-68
2022/10/21 19:39:08;;;;;;;2.80;1.30;;;;;;;14.90;100.00;97737.34;5079134;28;20591;-68
2022/10/21 19:41:36;;;;;;;1.80;1.37;;;;;;;14.92;100.00;97740.69;5079566;28;20221;-68
2022/10/21 19:44:05;;;;;;;3.47;1.80;;;;;;;14.95;100.00;97746.56;5079572;28;20276;-68
2022/10/21 19:46:35;;;;;;;2.03;1.20;;;;;;;14.98;100.00;97740.13;5079536;28;20613;-69
2022/10/21 19:49:05;;;;;;;2.70;1.20;;;;;;;15.01;100.00;97750.47;5079399;28;20240;-68
2022/10/21 19:51:33;;;;;;;1.60;1.17;;;;;;;15.04;100.00;97748.34;5079477;28;20253;-68
2022/10/21 19:54:04;;;;;;;1.90;1.13;;;;;;;15.05;100.00;97746.56;5077663;28;20229;-68
2022/10/21 19:56:32;;;;;;;1.47;1.30;;;;;;;15.07;100.00;97744.56;5079134;28;20245;-69
2022/10/21 19:59:01;;;;;;;4.07;1.30;;;;;;;15.09;100.00;97743.44;5079289;28;20278;-68
2022/10/21 20:01:29;;;;;;;1.97;1.43;;;;;;;15.13;100.00;97746.66;5079220;28;20321;-68
2022/10/21 20:03:57;;;;;;;1.53;1.40;;;;;;;15.13;100.00;97739.53;5079298;28;20221;-68
2022/10/21 20:06:28;;;;;;;1.40;1.20;;;;;;;15.14;100.00;97751.00;5079186;28;20244;-68
2022/10/21 20:08:58;;;;;;;2.77;1.50;;;;;;;15.16;100.00;97759.69;5079098;28;20225;-68
2022/10/21 20:11:26;;;;;;;3.27;1.40;;;;;;;15.07;100.00;97749.91;5079093;28;20226;-68
2022/10/21 20:13:55;;;;;;;2.17;1.50;;;;;;;15.15;100.00;97752.72;5079118;28;20270;-68
2022/10/21 20:16:25;;;;;;;3.13;2.00;;;;;;;15.20;100.00;97751.28;5078408;28;20239;-68
2022/10/21 20:18:53;;;;;;;2.27;1.50;;;;;;;15.19;100.00;97762.06;5078959;28;20217;-68
2022/10/21 20:21:21;;;;;;;3.67;1.70;;;;;;;15.27;100.00;97762.22;5077121;28;20296;-68
2022/10/21 20:23:50;;;;;;;2.70;1.80;;;;;;;15.37;100.00;97758.56;5078855;28;20225;-68
2022/10/21 20:26:18;;;;;;;3.73;1.73;;;;;;;15.45;100.00;97763.19;5078915;28;20218;-68
2022/10/21 20:28:46;;;;;;;2.70;1.60;;;;;;;15.53;100.00;97758.78;5078736;28;20293;-68
2022/10/21 20:31:14;;;;;;;2.60;1.40;;;;;;;15.58;100.00;97763.69;5078686;28;20309;-68
2022/10/21 20:33:43;;;;;;;2.47;1.53;;;;;;;15.63;100.00;97769.44;5078722;28;20218;-69
2022/10/21 20:36:13;;;;;;;2.97;1.80;;;;;;;15.60;100.00;97775.03;5078753;28;20221;-68
2022/10/21 20:38:40;;;;;;;2.47;1.73;;;;;;;15.61;100.00;97776.69;5078670;28;20222;-68
2022/10/21 20:41:11;;;;;;;2.47;1.60;;;;;;;15.62;100.00;97783.69;5078541;28;20261;-68
2022/10/21 20:43:39;;;;;;;3.27;1.50;;;;;;;15.60;100.00;97780.34;5078539;28;20349;-68
2022/10/21 20:46:08;;;;;;;2.03;1.43;;;;;;;15.63;100.00;97782.75;5076996;28;20216;-68
2022/10/21 20:48:36;;;;;;;3.53;1.90;;;;;;;15.67;100.00;97795.63;5078503;28;20329;-68
2022/10/21 20:51:05;;;;;;;1.77;1.67;;;;;;;15.72;100.00;97792.50;5078415;28;20262;-69
2022/10/21 20:53:31;;;;;;;2.80;1.80;;;;;;;15.77;100.00;97787.59;5078397;28;20264;-69
2022/10/21 20:55:58;;;;;;;3.07;2.00;;;;;;;15.77;100.00;97787.59;5078230;28;20218;-69
2022/10/21 20:58:27;;;;;;;4.30;1.87;;;;;;;15.79;100.00;97786.47;5078211;28;20318;-69
2022/10/21 21:00:53;;;;;;;5.53;2.97;;;;;;;15.75;100.00;97784.22;5078254;28;20319;-68
2022/10/21 21:03:20;;;;;;;3.60;2.00;;;;;;;15.67;100.00;97789.44;5078159;28;20267;-68
2022/10/21 21:05:47;;;;;;;2.33;1.87;;;;;;;15.61;100.00;97796.19;5078030;28;20518;-68
2022/10/21 21:08:13;;;;;;;2.83;2.10;;;;;;;15.55;100.00;97796.78;5077879;28;20606;-69
2022/10/21 21:10:40;;;;;;;5.87;2.00;;;;;;;15.53;100.00;97789.91;5077205;28;20571;-68
2022/10/21 21:13:07;;;;;;;2.47;1.67;;;;;;;15.50;100.00;97803.50;5077149;28;20317;-68
2022/10/21 21:15:35;;;;;;;4.87;2.00;;;;;;;15.51;100.00;97802.53;5077816;28;20290;-69
2022/10/21 21:18:02;;;;;;;3.30;2.37;;;;;;;15.50;100.00;97811.50;5077738;28;20277;-69
2022/10/21 21:20:29;;;;;;;3.93;2.07;;;;;;;15.47;100.00;97820.59;5077771;28;20221;-69
2022/10/21 21:22:56;;;;;;;2.50;2.10;;;;;;;15.42;100.00;97814.03;5077730;28;20225;-68
2022/10/21 21:25:23;;;;;;;4.43;2.27;;;;;;;15.42;100.00;97822.03;5077629;28;20266;-69
2022/10/21 21:27:49;;;;;;;4.20;2.23;;;;;;;15.36;100.00;97833.25;5076959;28;20254;-69
2022/10/21 21:30:16;;;;;;;3.50;2.10;;;;;;;15.34;100.00;97843.22;5077453;28;20327;-69
2022/10/21 21:32:44;;;;;;;2.53;2.00;;;;;;;15.29;100.00;97848.09;5077574;28;20266;-67
2022/10/21 21:35:11;;;;;;;3.63;2.30;;;;;;;15.22;100.00;97852.31;5077555;28;20218;-67
2022/10/21 21:37:38;;;;;;;3.93;2.43;;;;;;;15.19;100.00;97868.53;5075646;28;20281;-68
2022/10/21 21:40:06;;;;;;;4.30;2.50;;;;;;;15.11;100.00;97873.75;5077585;28;20221;-67
2022/10/21 21:42:32;;;;;;;3.20;2.37;;;;;;;15.08;100.00;97872.19;5077369;28;20609;-66
2022/10/21 21:44:59;;;;;;;4.33;2.33;;;;;;;15.09;100.00;97876.53;5077109;28;20589;-67
2022/10/21 21:47:25;;;;;;;3.67;2.87;;;;;;;15.09;100.00;97870.41;5077176;28;20632;-66
2022/10/21 21:49:53;;;;;;;4.57;3.07;;;;;;;15.02;100.00;97871.94;5077038;28;20283;-66
2022/10/21 21:52:20;;;;;;;4.37;2.30;;;;;;;14.93;100.00;97872.75;5076989;28;20248;-66
2022/10/21 21:54:48;;;;;;;2.57;2.00;;;;;;;14.90;100.00;97859.75;5077076;28;20227;-66
2022/10/21 21:57:14;;;;;;;2.87;2.10;;;;;;;14.85;100.00;97861.97;5076881;28;20244;-67
2022/10/21 21:59:41;;;;;;;3.90;2.00;;;;;;;14.77;100.00;97859.16;5077267;28;20521;-69
2022/10/21 22:02:08;;;;;;;3.30;2.03;;;;;;;14.71;100.00;97870.34;5076682;28;20289;-68
2022/10/21 22:04:38;;;;;;;2.47;1.90;;;;;;;14.66;100.00;97883.22;5075790;28;20216;-69
2022/10/21 22:07:06;;;;;;;3.80;1.63;;;;;;;14.50;100.00;97859.81;5076868;28;20215;-69
2022/10/21 22:09:32;;;;;;;4.83;2.00;;;;;;;14.44;100.00;97851.53;5077089;28;20260;-69
2022/10/21 22:11:59;;;;;;;4.43;1.63;;;;;;;14.36;100.00;97844.25;5076766;28;20404;-66
2022/10/21 22:14:26;;;;;;;1.30;1.20;;;;;;;14.21;100.00;97836.78;5076738;28;20215;-66
2022/10/21 22:16:52;;;;;;;2.70;1.33;;;;;;;14.17;100.00;97832.69;5076571;28;20219;-65
2022/10/21 22:19:19;;;;;;;3.43;1.40;;;;;;;14.14;100.00;97838.25;5076566;28;20260;-66
2022/10/21 22:21:45;;;;;;;3.37;1.00;;;;;;;14.13;100.00;97844.56;5076695;28;20250;-66
2022/10/21 22:24:13;;;;;;;2.57;1.10;;;;;;;14.07;100.00;97831.81;5076748;28;20251;-65